createdAt,value
2022-08-24T00:02:18.647Z,11.15
2022-08-24T00:04:47.084Z,10.50
2022-08-24T00:07:27.576Z,11.23
2022-08-24T00:09:57.032Z,9.25
2022-08-24T00:12:24.924Z,12.07
2022-08-24T00:14:52.368Z,8.88
2022-08-24T00:17:20.502Z,9.00
2022-08-24T00:19:48.430Z,10.23
2022-08-24T00:22:16.042Z,8.98
2022-08-24T00:24:44.224Z,11.13
2022-08-24T00:27:12.970Z,8.95
2022-08-24T00:29:40.395Z,8.82
2022-08-24T00:32:07.915Z,14.70
2022-08-24T00:34:36.457Z,8.55
2022-08-24T00:37:04.076Z,11.40
2022-08-24T00:39:31.457Z,10.52
2022-08-24T00:41:58.870Z,14.75
2022-08-24T00:44:27.657Z,12.88
2022-08-24T00:46:58.312Z,11.70
2022-08-24T00:49:29.659Z,14.43
2022-08-24T00:52:03.778Z,15.05
2022-08-24T00:54:33.495Z,11.63
2022-08-24T00:57:04.393Z,14.60
2022-08-24T00:59:37.419Z,12.43
2022-08-24T01:02:15.408Z,10.50
2022-08-24T01:04:47.582Z,10.20
2022-08-24T01:07:14.947Z,12.27
2022-08-24T01:09:42.340Z,9.85
2022-08-24T01:12:10.320Z,11.65
2022-08-24T01:14:39.459Z,10.10
2022-08-24T01:17:25.423Z,12.45
2022-08-24T01:19:55.796Z,12.43
2022-08-24T01:22:35.532Z,11.20
2022-08-24T01:25:05.999Z,11.52
2022-08-24T01:27:35.254Z,11.60
2022-08-24T01:30:08.290Z,15.27
2022-08-24T01:32:38.815Z,11.93
2022-08-24T01:35:06.844Z,13.38
2022-08-24T01:37:34.501Z,15.93
2022-08-24T01:40:07.411Z,12.98
2022-08-24T01:42:35.056Z,11.43
2022-08-24T01:45:02.604Z,10.38
2022-08-24T01:47:30.144Z,11.98
2022-08-24T01:49:58.250Z,15.48
2022-08-24T01:52:38.841Z,15.50
2022-08-24T01:55:19.921Z,16.40
2022-08-24T01:57:50.295Z,13.57
2022-08-24T02:00:17.778Z,11.88
2022-08-24T02:02:45.747Z,13.13
2022-08-24T02:05:14.458Z,14.35
2022-08-24T02:07:45.851Z,17.45
2022-08-24T02:10:16.436Z,18.90
2022-08-24T02:12:45.669Z,17.75
2022-08-24T02:15:14.053Z,22.20
2022-08-24T02:17:41.639Z,24.70
2022-08-24T02:20:10.288Z,32.67
2022-08-24T02:22:37.716Z,40.78
2022-08-24T02:25:06.078Z,39.67
2022-08-24T02:27:37.107Z,48.65
2022-08-24T02:30:05.892Z,53.47
2022-08-24T02:32:33.421Z,50.47
2022-08-24T02:35:00.802Z,51.53
2022-08-24T02:37:28.487Z,53.47
2022-08-24T02:39:55.995Z,55.78
2022-08-24T02:42:25.537Z,56.33
2022-08-24T02:44:55.138Z,68.35
2022-08-24T02:47:22.595Z,57.25
2022-08-24T02:50:07.669Z,68.03
2022-08-24T02:52:35.807Z,66.78
2022-08-24T02:55:03.200Z,60.03
2022-08-24T02:57:30.656Z,74.90
2022-08-24T02:59:59.682Z,74.85
2022-08-24T03:02:27.851Z,68.88
2022-08-24T03:04:55.510Z,82.72
2022-08-24T03:07:22.936Z,68.82
2022-08-24T03:09:50.356Z,61.45
2022-08-24T03:12:18.254Z,66.57
2022-08-24T03:14:45.782Z,63.80
2022-08-24T03:17:14.667Z,66.03
2022-08-24T03:19:42.518Z,57.72
2022-08-24T03:22:10.389Z,67.75
2022-08-24T03:24:37.830Z,66.43
2022-08-24T03:27:05.275Z,68.80
2022-08-24T03:29:35.084Z,69.80
2022-08-24T03:32:04.941Z,59.92
2022-08-24T03:34:33.808Z,70.47
2022-08-24T03:37:01.325Z,60.33
2022-08-24T03:39:29.063Z,65.72
2022-08-24T03:41:57.605Z,70.95
2022-08-24T03:44:26.477Z,72.47
2022-08-24T03:46:55.159Z,67.78
2022-08-24T03:49:24.541Z,67.32
2022-08-24T03:51:53.264Z,65.88
2022-08-24T03:54:23.427Z,56.53
2022-08-24T03:56:51.279Z,69.63
2022-08-24T03:59:20.134Z,57.42
2022-08-24T04:01:49.666Z,58.63
2022-08-24T04:04:17.058Z,63.10
2022-08-24T04:06:46.794Z,73.75
2022-08-24T04:09:15.941Z,61.80
2022-08-24T04:11:47.042Z,64.10
2022-08-24T04:14:27.516Z,60.58
2022-08-24T04:17:04.435Z,66.28
2022-08-24T04:19:36.126Z,67.85
2022-08-24T04:22:04.119Z,66.38
2022-08-24T04:24:32.995Z,54.88
2022-08-24T04:27:00.435Z,58.42
2022-08-24T04:29:27.944Z,62.92
2022-08-24T04:31:55.900Z,59.42
2022-08-24T04:34:24.042Z,62.70
2022-08-24T04:36:51.858Z,68.75
2022-08-24T04:39:19.509Z,61.10
2022-08-24T04:42:13.096Z,60.60
2022-08-24T04:44:42.190Z,60.67
2022-08-24T04:47:09.921Z,58.65
2022-08-24T04:49:39.145Z,60.90
2022-08-24T04:52:08.100Z,66.78
2022-08-24T04:54:35.586Z,54.80
2022-08-24T04:57:12.502Z,57.83
2022-08-24T04:59:43.886Z,64.20
2022-08-24T05:02:11.424Z,63.58
2022-08-24T05:04:38.939Z,52.95
2022-08-24T05:07:08.252Z,62.67
2022-08-24T05:09:35.744Z,64.03
2022-08-24T05:12:03.601Z,63.47
2022-08-24T05:14:36.041Z,63.17
2022-08-24T05:17:05.233Z,61.70
2022-08-24T05:19:36.699Z,55.15
2022-08-24T05:22:05.340Z,69.72
2022-08-24T05:24:32.782Z,61.10
2022-08-24T05:27:00.640Z,69.15
2022-08-24T05:29:28.366Z,60.38
2022-08-24T05:31:55.879Z,52.83
2022-08-24T05:34:24.913Z,57.90
2022-08-24T05:36:52.674Z,54.92
2022-08-24T05:39:42.591Z,54.72
2022-08-24T05:42:10.367Z,46.60
2022-08-24T05:44:45.733Z,58.25
2022-08-24T05:47:13.202Z,49.72
2022-08-24T05:49:42.838Z,46.22
2022-08-24T05:52:11.087Z,56.00
2022-08-24T05:54:39.337Z,44.58
2022-08-24T05:57:06.925Z,51.13
2022-08-24T05:59:44.544Z,49.63
2022-08-24T06:02:16.408Z,47.10
2022-08-24T06:04:45.764Z,44.22
2022-08-24T06:07:14.150Z,51.10
2022-08-24T06:09:46.110Z,39.95
2022-08-24T06:12:15.160Z,42.17
2022-08-24T06:14:46.392Z,38.45
2022-08-24T06:17:14.447Z,31.95
2022-08-24T06:19:43.734Z,34.33
2022-08-24T06:22:12.483Z,33.60
2022-08-24T06:24:59.257Z,29.67
2022-08-24T06:27:27.431Z,30.17
2022-08-24T06:29:58.348Z,28.45
2022-08-24T06:32:54.496Z,29.10
2022-08-24T06:35:43.592Z,24.85
2022-08-24T06:38:15.492Z,26.15
2022-08-24T06:40:45.488Z,26.27
2022-08-24T06:43:13.878Z,27.30
2022-08-24T06:45:49.042Z,26.65
2022-08-24T06:48:19.316Z,24.92
2022-08-24T06:50:48.047Z,26.33
2022-08-24T06:53:17.750Z,27.48
2022-08-24T06:55:47.889Z,26.42
2022-08-24T06:58:15.566Z,26.05
2022-08-24T07:00:43.055Z,27.17
2022-08-24T07:03:11.292Z,24.15
2022-08-24T07:05:51.476Z,27.50
2022-08-24T07:08:32.976Z,26.30
2022-08-24T07:11:00.685Z,28.92
2022-08-24T07:13:29.489Z,16.55
2022-08-24T07:15:57.066Z,23.48
2022-08-24T07:18:24.624Z,19.23
2022-08-24T07:20:54.740Z,21.80
2022-08-24T07:23:41.819Z,22.80
2022-08-24T07:26:21.900Z,18.63
2022-08-24T07:28:50.656Z,14.50
2022-08-24T07:31:18.402Z,20.02
2022-08-24T07:33:53.885Z,22.50
2022-08-24T07:36:22.570Z,24.45
2022-08-24T07:38:52.067Z,22.48
2022-08-24T07:41:56.499Z,19.00
2022-08-24T07:44:15.500Z,15.70
2022-08-24T07:46:43.277Z,19.42
2022-08-24T07:49:33.150Z,20.17
2022-08-24T07:52:01.887Z,23.70
2022-08-24T07:54:29.661Z,21.95
2022-08-24T07:57:02.120Z,23.35
2022-08-24T07:59:29.558Z,18.83
2022-08-24T08:01:57.695Z,20.10
2022-08-24T08:04:26.015Z,22.75
2022-08-24T08:09:27.025Z,14.52
2022-08-24T08:11:54.717Z,22.90
2022-08-24T08:14:23.659Z,15.07
2022-08-24T08:16:51.446Z,16.88
2022-08-24T08:19:18.896Z,19.05
2022-08-24T08:22:06.695Z,16.33
2022-08-24T08:24:45.248Z,16.67
2022-08-24T08:27:16.837Z,21.92
2022-08-24T08:29:45.958Z,21.50
2022-08-24T08:32:16.801Z,19.88
2022-08-24T08:34:46.044Z,16.17
2022-08-24T08:37:15.381Z,12.70
2022-08-24T08:39:43.230Z,19.65
2022-08-24T08:42:38.425Z,17.70
2022-08-24T08:45:23.414Z,20.60
2022-08-24T08:48:14.722Z,16.00
2022-08-24T08:51:09.892Z,23.40
2022-08-24T08:54:11.021Z,17.73
2022-08-24T08:56:45.590Z,17.15
2022-08-24T08:59:19.061Z,25.50
2022-08-24T09:02:04.030Z,16.05
2022-08-24T09:04:55.967Z,17.98
2022-08-24T09:07:35.921Z,15.85
2022-08-24T09:10:40.552Z,19.45
2022-08-24T09:13:18.528Z,22.15
2022-08-24T09:16:10.440Z,21.92
2022-08-24T09:18:50.708Z,14.63
2022-08-24T09:21:32.583Z,15.50
2022-08-24T09:24:05.007Z,18.58
2022-08-24T09:26:41.432Z,14.80
2022-08-24T09:29:11.697Z,18.70
2022-08-24T09:31:46.368Z,17.48
2022-08-24T09:34:20.376Z,13.40
2022-08-24T09:36:54.071Z,17.02
2022-08-24T09:39:47.039Z,16.02
2022-08-24T09:42:42.866Z,16.27
2022-08-24T09:45:23.258Z,14.85
2022-08-24T09:48:09.459Z,15.13
2022-08-24T09:51:12.341Z,15.93
2022-08-24T09:53:53.624Z,13.57
2022-08-24T09:56:32.752Z,25.00
2022-08-24T09:59:11.510Z,16.17
2022-08-24T10:01:44.781Z,16.42
2022-08-24T10:04:20.821Z,14.55
2022-08-24T10:07:04.921Z,12.32
2022-08-24T10:09:46.360Z,25.67
2022-08-24T10:12:20.800Z,16.55
2022-08-24T10:14:54.313Z,14.15
2022-08-24T10:17:34.297Z,16.40
2022-08-24T10:20:09.259Z,12.15
2022-08-24T10:22:54.132Z,15.55
2022-08-24T10:25:31.780Z,12.10
2022-08-24T10:28:08.133Z,14.15
2022-08-24T10:30:51.658Z,14.48
2022-08-24T10:33:23.527Z,11.45
2022-08-24T10:36:16.562Z,13.77
2022-08-24T10:39:08.991Z,7.63
2022-08-24T10:42:11.702Z,10.35
2022-08-24T10:44:46.551Z,40.97
2022-08-24T10:47:21.634Z,11.68
2022-08-24T10:50:07.699Z,12.13
2022-08-24T10:52:58.731Z,12.30
2022-08-24T10:55:30.310Z,15.00
2022-08-24T10:58:10.405Z,12.43
2022-08-24T11:00:38.424Z,14.45
2022-08-24T11:03:11.957Z,11.27
2022-08-24T11:05:43.824Z,11.95
2022-08-24T11:08:18.455Z,11.10
2022-08-24T11:10:48.429Z,10.77
2022-08-24T11:13:27.487Z,11.35
2022-08-24T11:15:57.013Z,15.00
2022-08-24T11:18:24.886Z,10.82
2022-08-24T11:20:55.599Z,8.82
2022-08-24T11:23:28.350Z,11.65
2022-08-24T11:26:03.843Z,10.55
2022-08-24T11:28:35.035Z,14.57
2022-08-24T11:31:03.507Z,11.82
2022-08-24T11:33:33.380Z,11.45
2022-08-24T11:36:02.091Z,11.40
2022-08-24T11:38:31.867Z,13.10
2022-08-24T11:41:04.958Z,12.88
2022-08-24T11:43:45.990Z,12.43
2022-08-24T11:46:19.509Z,19.58
2022-08-24T11:48:57.390Z,10.93
2022-08-24T11:51:31.935Z,16.48
2022-08-24T11:54:05.016Z,11.15
2022-08-24T11:56:39.316Z,91.28
2022-08-24T11:59:13.680Z,14.15
2022-08-24T12:01:46.295Z,13.20
2022-08-24T12:04:39.053Z,29.75
2022-08-24T12:07:14.924Z,24.02
2022-08-24T12:10:00.068Z,21.98
2022-08-24T12:12:36.042Z,10.93
2022-08-24T12:15:07.996Z,12.30
2022-08-24T12:17:38.367Z,13.30
2022-08-24T12:20:12.708Z,12.15
2022-08-24T12:22:40.430Z,13.23
2022-08-24T12:25:29.720Z,14.40
2022-08-24T12:27:59.064Z,45.47
2022-08-24T12:30:27.475Z,14.52
2022-08-24T12:32:57.869Z,14.30
2022-08-24T12:35:29.102Z,15.63
2022-08-24T12:37:59.733Z,21.33
2022-08-24T12:40:30.701Z,18.25
2022-08-24T12:43:04.394Z,16.88
2022-08-24T12:45:31.776Z,16.35
2022-08-24T12:48:03.933Z,15.77
2022-08-24T12:50:36.147Z,15.87
2022-08-24T12:53:31.858Z,16.10
2022-08-24T12:56:20.483Z,11.85
2022-08-24T12:59:00.667Z,10.85
2022-08-24T13:01:33.617Z,29.42
2022-08-24T13:04:08.168Z,43.75
2022-08-24T13:06:42.593Z,184.07
2022-08-24T13:09:15.131Z,36.88
2022-08-24T13:11:42.817Z,19.58
2022-08-24T13:14:20.911Z,16.90
2022-08-24T13:16:52.229Z,15.80
2022-08-24T13:19:34.215Z,17.63
2022-08-24T13:22:47.934Z,11.63
2022-08-24T13:25:27.632Z,11.13
2022-08-24T13:28:27.635Z,11.35
2022-08-24T13:31:20.424Z,11.70
2022-08-24T13:33:50.212Z,15.23
2022-08-24T13:36:53.590Z,11.32
2022-08-24T13:39:40.681Z,18.00
2022-08-24T13:42:15.757Z,16.33
2022-08-24T13:45:02.286Z,18.52
2022-08-24T13:47:34.906Z,17.02
2022-08-24T13:50:09.227Z,11.17
2022-08-24T13:52:55.092Z,10.88
2022-08-24T13:55:33.728Z,10.70
2022-08-24T13:58:11.775Z,12.18
2022-08-24T14:00:44.193Z,12.18
2022-08-24T14:03:22.815Z,15.77
2022-08-24T14:05:52.144Z,10.55
2022-08-24T14:08:31.914Z,12.68
2022-08-24T14:11:10.305Z,13.05
2022-08-24T14:13:49.454Z,11.55
2022-08-24T14:16:50.635Z,11.88
2022-08-24T14:19:24.473Z,13.73
2022-08-24T14:21:55.439Z,14.23
2022-08-24T14:24:27.075Z,11.25
2022-08-24T14:27:14.734Z,19.90
2022-08-24T14:29:48.797Z,13.38
2022-08-24T14:32:45.824Z,12.20
2022-08-24T14:35:27.619Z,15.93
2022-08-24T14:38:10.577Z,12.98
2022-08-24T14:40:51.789Z,13.20
2022-08-24T14:43:30.983Z,10.80
2022-08-24T14:46:04.500Z,15.60
2022-08-24T14:48:38.395Z,15.07
2022-08-24T14:51:11.929Z,8.98
2022-08-24T14:56:21.983Z,11.35
2022-08-24T14:59:01.560Z,14.27
2022-08-24T15:01:41.734Z,9.43
2022-08-24T15:04:30.730Z,17.80
2022-08-24T15:07:27.934Z,11.10
2022-08-24T15:09:56.828Z,13.25
2022-08-24T15:12:33.247Z,17.88
2022-08-24T15:15:05.943Z,13.25
2022-08-24T15:17:44.185Z,15.90
2022-08-24T15:20:19.628Z,15.68
2022-08-24T15:22:51.422Z,11.15
2022-08-24T15:25:30.600Z,16.02
2022-08-24T15:28:00.508Z,14.15
2022-08-24T15:30:32.908Z,23.73
2022-08-24T15:33:06.250Z,15.25
2022-08-24T15:35:36.176Z,13.50
2022-08-24T15:38:18.194Z,12.35
2022-08-24T15:40:46.568Z,11.82
2022-08-24T15:43:14.291Z,16.85
2022-08-24T15:45:49.066Z,15.13
2022-08-24T15:48:18.763Z,10.35
2022-08-24T15:50:48.246Z,14.23
2022-08-24T15:53:30.693Z,14.45
2022-08-24T15:56:01.352Z,26.65
2022-08-24T15:58:33.547Z,13.75
2022-08-24T16:01:41.931Z,14.38
2022-08-24T16:04:10.914Z,13.35
2022-08-24T16:06:45.041Z,14.90
2022-08-24T16:09:33.514Z,15.32
2022-08-24T16:12:04.429Z,11.02
2022-08-24T16:14:33.686Z,14.15
2022-08-24T16:17:20.192Z,14.07
2022-08-24T16:19:51.418Z,11.20
2022-08-24T16:22:27.297Z,11.02
2022-08-24T16:25:10.523Z,15.48
2022-08-24T16:27:58.087Z,12.48
2022-08-24T16:30:38.572Z,16.52
2022-08-24T16:33:07.760Z,14.30
2022-08-24T16:35:35.705Z,12.30
2022-08-24T16:38:06.483Z,13.38
2022-08-24T16:40:35.190Z,13.93
2022-08-24T16:43:03.097Z,15.90
2022-08-24T16:45:35.333Z,16.33
2022-08-24T16:48:03.721Z,13.63
2022-08-24T16:50:32.547Z,10.73
2022-08-24T16:52:59.923Z,14.25
2022-08-24T16:55:28.339Z,18.00
2022-08-24T16:57:55.926Z,10.63
2022-08-24T17:00:23.605Z,15.80
2022-08-24T17:02:50.991Z,12.43
2022-08-24T17:05:18.718Z,11.77
2022-08-24T17:07:47.711Z,16.30
2022-08-24T17:10:16.798Z,14.02
2022-08-24T17:12:44.167Z,14.48
2022-08-24T17:15:12.824Z,16.85
2022-08-24T17:17:40.619Z,19.80
2022-08-24T17:20:11.055Z,15.75
2022-08-24T17:22:39.173Z,12.38
2022-08-24T17:25:08.296Z,12.05
2022-08-24T17:27:35.723Z,16.42
2022-08-24T17:30:03.831Z,17.30
2022-08-24T17:32:31.321Z,12.32
2022-08-24T17:34:58.758Z,9.25
2022-08-24T17:37:26.289Z,11.85
2022-08-24T17:39:57.091Z,14.07
2022-08-24T17:42:49.581Z,11.95
2022-08-24T17:45:13.419Z,14.13
2022-08-24T17:47:41.352Z,13.77
2022-08-24T17:50:10.200Z,19.00
2022-08-24T17:52:38.033Z,10.75
2022-08-24T17:55:06.030Z,14.95
2022-08-24T17:57:34.872Z,14.63
2022-08-24T18:00:02.371Z,11.35
2022-08-24T18:02:39.722Z,12.55
2022-08-24T18:05:08.457Z,13.60
2022-08-24T18:07:52.558Z,14.98
2022-08-24T18:10:22.295Z,12.68
2022-08-24T18:12:51.196Z,12.30
2022-08-24T18:15:18.742Z,13.88
2022-08-24T18:17:48.643Z,8.75
2022-08-24T18:20:17.669Z,18.27
2022-08-24T18:22:47.032Z,12.98
2022-08-24T18:25:16.222Z,14.23
2022-08-24T18:27:45.824Z,15.50
2022-08-24T18:30:19.631Z,14.20
2022-08-24T18:32:49.838Z,17.50
2022-08-24T18:35:17.530Z,15.18
2022-08-24T18:37:45.033Z,11.63
2022-08-24T18:40:20.371Z,15.02
2022-08-24T18:42:50.626Z,11.40
2022-08-24T18:45:19.600Z,17.02
2022-08-24T18:47:53.436Z,14.50
2022-08-24T18:50:21.439Z,15.68
2022-08-24T18:52:48.942Z,19.88
2022-08-24T18:55:16.445Z,13.50
2022-08-24T18:57:43.839Z,12.35
2022-08-24T19:00:12.723Z,12.57
2022-08-24T19:02:41.680Z,14.85
2022-08-24T19:05:11.588Z,14.27
2022-08-24T19:07:41.788Z,14.63
2022-08-24T19:10:11.200Z,13.52
2022-08-24T19:12:42.490Z,18.70
2022-08-24T19:15:34.600Z,50.70
2022-08-24T19:18:03.001Z,13.43
2022-08-24T19:20:32.679Z,14.20
2022-08-24T19:23:01.505Z,13.85
2022-08-24T19:25:29.119Z,12.48
2022-08-24T19:27:56.605Z,17.88
2022-08-24T19:30:24.003Z,13.88
2022-08-24T19:32:51.588Z,10.48
2022-08-24T19:35:21.059Z,13.88
2022-08-24T19:37:49.568Z,12.35
2022-08-24T19:40:17.184Z,16.92
2022-08-24T19:42:44.804Z,15.68
2022-08-24T19:45:31.124Z,13.80
2022-08-24T19:47:58.516Z,16.35
2022-08-24T19:50:28.508Z,10.82
2022-08-24T19:52:57.497Z,11.85
2022-08-24T19:55:25.190Z,16.75
2022-08-24T19:57:55.151Z,12.68
2022-08-24T20:00:27.197Z,12.73
2022-08-24T20:02:56.138Z,11.93
2022-08-24T20:05:25.303Z,13.55
2022-08-24T20:07:54.011Z,14.35
2022-08-24T20:10:23.315Z,39.72
2022-08-24T20:12:51.105Z,24.90
2022-08-24T20:15:18.871Z,15.25
2022-08-24T20:17:46.476Z,14.88
2022-08-24T20:20:17.276Z,14.85
2022-08-24T20:22:44.770Z,12.18
2022-08-24T20:25:14.357Z,11.98
2022-08-24T20:27:42.216Z,9.18
2022-08-24T20:30:10.899Z,12.25
2022-08-24T20:32:38.284Z,17.75
2022-08-24T20:35:06.631Z,15.57
2022-08-24T20:37:34.748Z,12.55
2022-08-24T20:40:02.969Z,12.73
2022-08-24T20:42:32.192Z,11.63
2022-08-24T20:45:00.463Z,11.10
2022-08-24T20:47:28.148Z,13.27
2022-08-24T20:49:55.645Z,14.10
2022-08-24T20:52:23.148Z,13.45
2022-08-24T20:54:50.547Z,14.85
2022-08-24T20:57:20.305Z,14.13
2022-08-24T20:59:48.987Z,12.73
2022-08-24T21:02:16.411Z,14.93
2022-08-24T21:04:43.776Z,15.40
2022-08-24T21:07:12.429Z,14.20
2022-08-24T21:09:40.518Z,10.98
2022-08-24T21:12:08.907Z,13.50
2022-08-24T21:14:36.347Z,12.00
2022-08-24T21:17:06.679Z,20.52
2022-08-24T21:19:34.336Z,12.57
2022-08-24T21:22:02.008Z,17.67
2022-08-24T21:24:29.471Z,15.82
2022-08-24T21:26:57.023Z,13.55
2022-08-24T21:29:24.416Z,13.52
2022-08-24T21:32:09.508Z,14.65
2022-08-24T21:34:41.231Z,12.80
2022-08-24T21:37:09.339Z,15.05
2022-08-24T21:39:36.914Z,15.70
2022-08-24T21:42:04.602Z,12.15
2022-08-24T21:44:32.177Z,12.85
2022-08-24T21:47:00.408Z,11.90
2022-08-24T21:49:28.140Z,13.95
2022-08-24T21:51:56.835Z,11.40
2022-08-24T21:54:24.228Z,16.40
2022-08-24T21:56:51.652Z,11.20
2022-08-24T21:59:19.356Z,13.77
2022-08-24T22:01:46.915Z,14.10
2022-08-24T22:04:15.707Z,12.98
2022-08-24T22:06:43.075Z,16.35
2022-08-24T22:09:11.808Z,15.00
2022-08-24T22:11:39.552Z,14.25
2022-08-24T22:14:06.948Z,13.50
2022-08-24T22:16:37.070Z,15.30
2022-08-24T22:19:04.915Z,17.98
2022-08-24T22:21:34.790Z,12.98
2022-08-24T22:24:04.397Z,14.65
2022-08-24T22:26:33.502Z,14.30
2022-08-24T22:29:01.414Z,10.52
2022-08-24T22:31:31.091Z,16.48
2022-08-24T22:34:00.565Z,16.30
2022-08-24T22:36:29.249Z,13.27
2022-08-24T22:38:57.329Z,13.23
2022-08-24T22:41:24.752Z,11.35
2022-08-24T22:44:13.097Z,16.73
2022-08-24T22:46:40.859Z,9.25
2022-08-24T22:49:08.993Z,18.40
2022-08-24T22:51:36.466Z,13.88
2022-08-24T22:54:04.293Z,13.73
2022-08-24T22:56:33.792Z,14.68
2022-08-24T22:59:04.945Z,11.70
2022-08-24T23:01:34.968Z,12.88
2022-08-24T23:04:05.262Z,14.85
2022-08-24T23:06:32.860Z,13.80
2022-08-24T23:09:00.624Z,15.65
2022-08-24T23:11:28.242Z,13.68
2022-08-24T23:13:57.339Z,15.35
2022-08-24T23:16:27.332Z,15.93
2022-08-24T23:19:12.449Z,15.95
2022-08-24T23:21:39.920Z,10.40
2022-08-24T23:24:09.513Z,13.35
2022-08-24T23:26:37.169Z,14.43
2022-08-24T23:29:04.711Z,19.45
2022-08-24T23:31:33.654Z,12.27
2022-08-24T23:34:01.084Z,16.23
2022-08-24T23:36:29.011Z,15.07
2022-08-24T23:38:58.684Z,14.50
2022-08-24T23:41:28.072Z,15.93
2022-08-24T23:43:55.857Z,12.65
2022-08-24T23:46:23.953Z,15.45
2022-08-24T23:48:55.878Z,16.33
2022-08-24T23:51:24.852Z,14.57
2022-08-24T23:53:52.372Z,14.63
2022-08-24T23:56:22.026Z,15.18
2022-08-24T23:58:49.986Z,18.92
